Wishon, California
Current Conditions -  °F | °C
As of 4:03 AM on Wednesday 28 Jan 2015 (Local Time) from KFAT Reporting Station
Moderate Fog Moderate Fog  
Wind Chill:   Ceiling: 100
Heat Index:   Visibility: 0.06mi
Dew Point:   Wind: 0mph
Humidity: 100%   Direction: NA
Pressure: 30.25"   Gusts: NA
Location:  37.27°N, 119.54°W
Report Text: KFAT 281203Z 00000KT 1/16SM R29R/1200V1800FT FG VV001 07/07 A3025 RMK AO2 T00720072
Loading
Personal Weather Stations






























Interactive Weather Map New forecast layout! Learn more

10-Day Weather Forecast

Advertisements
Track Severe Weather on mobile